createdAt,value
2024-02-24T00:02:01.377Z,11.90
2024-02-24T00:04:31.283Z,11.87
2024-02-24T00:07:00.470Z,11.81
2024-02-24T00:09:30.099Z,11.80
2024-02-24T00:11:59.761Z,11.80
2024-02-24T00:14:29.399Z,11.70
2024-02-24T00:16:59.134Z,11.64
2024-02-24T00:19:28.454Z,11.72
2024-02-24T00:21:58.006Z,11.64
2024-02-24T00:24:27.432Z,11.73
2024-02-24T00:26:56.587Z,11.65
2024-02-24T00:29:26.136Z,11.60
2024-02-24T00:31:55.424Z,11.61
2024-02-24T00:34:25.046Z,11.62
2024-02-24T00:36:54.487Z,11.61
2024-02-24T00:39:23.732Z,11.62
2024-02-24T00:41:54.815Z,11.58
2024-02-24T00:44:24.474Z,11.50
2024-02-24T00:46:53.780Z,11.46
2024-02-24T00:49:23.663Z,11.53
2024-02-24T00:51:52.948Z,11.47
2024-02-24T00:54:22.554Z,11.46
2024-02-24T00:56:52.058Z,11.36
2024-02-24T00:59:21.656Z,11.31
2024-02-24T01:01:50.997Z,11.26
2024-02-24T01:04:24.400Z,11.21
2024-02-24T01:06:55.324Z,11.19
2024-02-24T01:09:25.503Z,11.17
2024-02-24T01:11:55.122Z,11.09
2024-02-24T01:14:24.598Z,11.08
2024-02-24T01:16:54.104Z,11.07
2024-02-24T01:19:23.528Z,11.00
2024-02-24T01:21:55.226Z,10.99
2024-02-24T01:24:25.232Z,10.93
2024-02-24T01:26:54.762Z,10.91
2024-02-24T01:29:24.118Z,10.96
2024-02-24T01:31:53.542Z,11.04
2024-02-24T01:34:22.920Z,11.08
2024-02-24T01:36:52.365Z,11.11
2024-02-24T01:39:21.669Z,11.12
2024-02-24T01:41:51.174Z,11.10
2024-02-24T01:44:20.777Z,11.09
2024-02-24T01:46:50.646Z,11.06
2024-02-24T01:49:20.058Z,11.11
2024-02-24T01:51:49.548Z,11.16
2024-02-24T01:54:18.995Z,11.13
2024-02-24T01:56:48.951Z,11.12
2024-02-24T01:59:18.918Z,11.15
2024-02-24T02:01:48.518Z,11.22
2024-02-24T02:04:17.747Z,11.22
2024-02-24T02:06:47.643Z,11.23
2024-02-24T02:09:17.029Z,11.23
2024-02-24T02:11:56.086Z,11.25
2024-02-24T02:14:29.912Z,11.37
2024-02-24T02:16:59.196Z,11.48
2024-02-24T02:19:28.672Z,11.71
2024-02-24T02:22:01.598Z,11.70
2024-02-24T02:24:30.899Z,11.78
2024-02-24T02:27:00.669Z,11.87
2024-02-24T02:29:30.186Z,11.99
2024-02-24T02:32:00.306Z,12.11
2024-02-24T02:34:30.043Z,12.24
2024-02-24T02:36:59.562Z,12.39
2024-02-24T02:39:28.930Z,12.46
2024-02-24T02:41:58.418Z,12.61
2024-02-24T02:44:27.821Z,12.83
2024-02-24T02:46:57.313Z,13.05
2024-02-24T02:49:26.950Z,13.13
2024-02-24T02:51:56.432Z,13.25
2024-02-24T02:54:25.640Z,13.44
2024-02-24T02:56:55.309Z,13.65
2024-02-24T02:59:24.565Z,13.83
2024-02-24T03:01:54.367Z,14.08
2024-02-24T03:04:23.750Z,14.30
2024-02-24T03:06:53.161Z,14.62
2024-02-24T03:09:22.361Z,14.84
2024-02-24T03:11:51.967Z,15.09
2024-02-24T03:14:22.341Z,15.38
2024-02-24T03:16:51.993Z,15.49
2024-02-24T03:19:21.233Z,15.66
2024-02-24T03:21:51.102Z,15.91
2024-02-24T03:24:20.662Z,16.42
2024-02-24T03:26:49.921Z,17.05
2024-02-24T03:29:19.527Z,17.46
2024-02-24T03:31:48.982Z,17.37
2024-02-24T03:34:18.304Z,17.32
2024-02-24T03:36:47.480Z,17.65
2024-02-24T03:39:16.742Z,18.01
2024-02-24T03:41:46.306Z,18.63
2024-02-24T03:44:15.562Z,18.79
2024-02-24T03:46:45.129Z,19.11
2024-02-24T03:49:14.927Z,19.04
2024-02-24T03:51:44.369Z,19.03
2024-02-24T03:54:13.850Z,18.90
2024-02-24T03:56:43.571Z,19.40
2024-02-24T03:59:12.801Z,19.81
2024-02-24T04:01:43.392Z,20.17
2024-02-24T04:04:12.896Z,19.72
2024-02-24T04:06:48.415Z,19.63
2024-02-24T04:09:17.912Z,19.62
2024-02-24T04:11:47.720Z,19.66
2024-02-24T04:14:17.180Z,20.07
2024-02-24T04:16:46.814Z,20.30
2024-02-24T04:19:16.526Z,19.96
2024-02-24T04:21:45.775Z,20.06
2024-02-24T04:24:15.280Z,20.14
2024-02-24T04:26:44.667Z,20.44
2024-02-24T04:29:14.121Z,20.19
2024-02-24T04:31:43.377Z,20.36
2024-02-24T04:34:12.862Z,20.73
2024-02-24T04:36:43.751Z,20.74
2024-02-24T04:39:13.283Z,20.56
2024-02-24T04:41:43.192Z,21.26
2024-02-24T04:44:12.662Z,21.27
2024-02-24T04:46:42.922Z,21.32
2024-02-24T04:49:12.553Z,21.09
2024-02-24T04:51:41.855Z,21.38
2024-02-24T04:54:11.291Z,21.72
2024-02-24T04:56:40.568Z,21.78
2024-02-24T04:59:10.249Z,21.75
2024-02-24T05:01:39.486Z,22.10
2024-02-24T05:04:08.922Z,22.29
2024-02-24T05:06:38.512Z,22.27
2024-02-24T05:09:10.838Z,22.51
2024-02-24T05:11:41.591Z,22.21
2024-02-24T05:14:11.238Z,22.40
2024-02-24T05:16:43.966Z,22.75
2024-02-24T05:19:13.797Z,22.77
2024-02-24T05:21:43.271Z,22.59
2024-02-24T05:24:12.556Z,22.98
2024-02-24T05:26:42.155Z,22.49
2024-02-24T05:29:11.837Z,21.90
2024-02-24T05:31:41.313Z,21.55
2024-02-24T05:34:10.824Z,21.14
2024-02-24T05:36:40.358Z,21.80
2024-02-24T05:39:10.291Z,21.93
2024-02-24T05:41:39.882Z,22.94
2024-02-24T05:44:09.702Z,22.71
2024-02-24T05:46:38.944Z,22.52
2024-02-24T05:49:08.470Z,22.57
2024-02-24T05:51:38.217Z,22.44
2024-02-24T05:54:07.937Z,22.25
2024-02-24T05:56:37.791Z,22.81
2024-02-24T05:59:07.482Z,22.47
2024-02-24T06:01:36.985Z,22.39
2024-02-24T06:04:06.577Z,22.64
2024-02-24T06:06:36.136Z,23.14
2024-02-24T06:09:06.161Z,22.60
2024-02-24T06:11:36.474Z,23.07
2024-02-24T06:14:06.535Z,22.87
2024-02-24T06:16:36.041Z,23.41
2024-02-24T06:19:05.784Z,23.22
2024-02-24T06:21:35.408Z,23.54
2024-02-24T06:24:05.734Z,23.29
2024-02-24T06:26:35.853Z,23.29
2024-02-24T06:29:05.469Z,23.38
2024-02-24T06:31:34.829Z,23.11
2024-02-24T06:34:08.209Z,22.63
2024-02-24T06:36:39.118Z,22.92
2024-02-24T06:39:09.709Z,22.95
2024-02-24T06:41:39.322Z,22.48
2024-02-24T06:44:08.873Z,22.51
2024-02-24T06:46:38.389Z,22.48
2024-02-24T06:49:08.232Z,22.46
2024-02-24T06:51:38.179Z,22.87
2024-02-24T06:54:08.195Z,22.70
2024-02-24T06:56:38.110Z,22.76
2024-02-24T06:59:08.982Z,22.52
2024-02-24T07:01:38.858Z,22.31
2024-02-24T07:04:08.551Z,23.07
2024-02-24T07:06:38.419Z,23.40
2024-02-24T07:09:08.437Z,23.32
2024-02-24T07:11:38.533Z,23.48
2024-02-24T07:14:08.181Z,23.37
2024-02-24T07:16:37.601Z,23.40
2024-02-24T07:19:07.314Z,23.22
2024-02-24T07:21:36.779Z,23.44
2024-02-24T07:24:06.786Z,23.72
2024-02-24T07:26:46.825Z,23.79
2024-02-24T07:29:18.519Z,23.38
2024-02-24T07:31:49.099Z,23.05
2024-02-24T07:34:18.770Z,22.99
2024-02-24T07:36:48.197Z,22.58
2024-02-24T07:39:17.681Z,22.46
2024-02-24T07:41:47.389Z,22.38
2024-02-24T07:44:18.418Z,22.70
2024-02-24T07:46:49.353Z,22.78
2024-02-24T07:49:18.754Z,22.91
2024-02-24T07:51:48.356Z,22.49
2024-02-24T07:54:17.600Z,22.82
2024-02-24T07:56:47.542Z,22.85
2024-02-24T07:59:17.396Z,22.94
2024-02-24T08:01:46.821Z,22.69
2024-02-24T08:04:17.514Z,22.86
2024-02-24T08:06:47.221Z,22.74
2024-02-24T08:09:17.396Z,22.88
2024-02-24T08:14:16.338Z,22.77
2024-02-24T08:16:47.214Z,22.81
2024-02-24T08:19:18.359Z,22.99
2024-02-24T08:21:48.206Z,23.05
2024-02-24T08:24:18.703Z,22.80
2024-02-24T08:26:50.460Z,22.81
2024-02-24T08:29:20.108Z,22.86
2024-02-24T08:31:50.705Z,22.79
2024-02-24T08:34:20.500Z,22.92
2024-02-24T08:36:50.927Z,22.73
2024-02-24T08:39:20.853Z,21.94
2024-02-24T08:41:51.014Z,21.76
2024-02-24T08:44:22.510Z,22.04
2024-02-24T08:46:52.303Z,22.35
2024-02-24T08:49:21.752Z,22.69
2024-02-24T08:51:51.429Z,22.68
2024-02-24T08:54:23.147Z,22.09
2024-02-24T08:56:52.910Z,22.16
2024-02-24T08:59:22.571Z,22.13
2024-02-24T09:01:55.600Z,22.54
2024-02-24T09:04:24.666Z,22.34
2024-02-24T09:06:54.151Z,22.56
2024-02-24T09:09:23.601Z,22.67
2024-02-24T09:11:53.144Z,22.67
2024-02-24T09:14:22.695Z,22.63
2024-02-24T09:16:57.709Z,22.33
2024-02-24T09:19:28.460Z,22.35
2024-02-24T09:21:58.156Z,22.59
2024-02-24T09:24:27.455Z,22.52
2024-02-24T09:26:57.020Z,22.34
2024-02-24T09:29:26.596Z,22.55
2024-02-24T09:31:55.986Z,22.48
2024-02-24T09:34:25.835Z,22.44
2024-02-24T09:36:57.320Z,22.32
2024-02-24T09:39:27.182Z,22.40
2024-02-24T09:42:02.045Z,22.35
2024-02-24T09:44:34.980Z,22.50
2024-02-24T09:47:06.195Z,22.44
2024-02-24T09:49:36.385Z,22.48
2024-02-24T09:52:07.321Z,22.40
2024-02-24T09:54:39.032Z,22.13
2024-02-24T09:57:15.360Z,22.05
2024-02-24T09:59:48.224Z,21.93
2024-02-24T10:02:21.542Z,21.92
2024-02-24T10:04:57.767Z,21.96
2024-02-24T10:07:28.411Z,21.85
2024-02-24T10:09:59.084Z,21.84
2024-02-24T10:12:35.014Z,21.71
2024-02-24T10:15:05.297Z,21.51
2024-02-24T10:17:35.232Z,21.46
2024-02-24T10:20:05.422Z,21.56
2024-02-24T10:22:35.139Z,21.59
2024-02-24T10:25:05.051Z,21.56
2024-02-24T10:27:35.946Z,21.32
2024-02-24T10:30:07.309Z,21.19
2024-02-24T10:32:38.332Z,21.24
2024-02-24T10:35:08.933Z,21.20
2024-02-24T10:37:56.137Z,21.14
2024-02-24T10:40:28.789Z,21.17
2024-02-24T10:43:01.285Z,21.25
2024-02-24T10:45:31.470Z,21.30
2024-02-24T10:48:02.070Z,21.23
2024-02-24T10:50:32.033Z,21.28
2024-02-24T10:53:03.560Z,21.27
2024-02-24T10:55:37.796Z,21.03
2024-02-24T10:58:07.747Z,20.88
2024-02-24T11:00:38.133Z,20.85
2024-02-24T11:03:10.704Z,20.72
2024-02-24T11:05:40.523Z,20.63
2024-02-24T11:08:37.477Z,20.47
2024-02-24T11:11:10.179Z,20.56
2024-02-24T11:13:55.660Z,20.53
2024-02-24T11:16:39.749Z,20.38
2024-02-24T11:19:14.885Z,20.51
2024-02-24T11:22:05.284Z,20.41
2024-02-24T11:24:37.729Z,20.46
2024-02-24T11:27:08.509Z,20.48
2024-02-24T11:29:39.570Z,20.35
2024-02-24T11:32:18.920Z,20.37
2024-02-24T11:34:49.696Z,20.22
2024-02-24T11:37:22.653Z,20.18
2024-02-24T11:39:52.949Z,20.28
2024-02-24T11:42:25.931Z,20.24
2024-02-24T11:44:58.225Z,20.08
2024-02-24T11:47:30.922Z,20.11
2024-02-24T11:50:00.765Z,20.08
2024-02-24T11:52:30.431Z,20.03
2024-02-24T11:55:00.745Z,20.01
2024-02-24T11:57:30.528Z,19.95
2024-02-24T12:00:00.859Z,19.86
2024-02-24T12:02:30.744Z,19.79
2024-02-24T12:05:19.195Z,19.72
2024-02-24T12:07:49.253Z,19.74
2024-02-24T12:10:19.860Z,19.68
2024-02-24T12:12:50.669Z,19.69
2024-02-24T12:15:20.596Z,19.67
2024-02-24T12:17:51.709Z,19.67
2024-02-24T12:20:28.027Z,19.63
2024-02-24T12:22:59.878Z,19.53
2024-02-24T12:25:29.700Z,19.48
2024-02-24T12:28:00.572Z,19.42
2024-02-24T12:30:38.210Z,19.34
2024-02-24T12:33:09.786Z,19.31
2024-02-24T12:35:40.929Z,19.20
2024-02-24T12:38:20.580Z,19.16
2024-02-24T12:40:50.621Z,19.11
2024-02-24T12:43:20.235Z,19.07
2024-02-24T12:45:52.071Z,18.98
2024-02-24T12:48:22.530Z,18.94
2024-02-24T12:50:52.472Z,18.89
2024-02-24T12:53:23.894Z,18.81
2024-02-24T12:55:54.025Z,18.67
2024-02-24T12:58:25.632Z,18.53
2024-02-24T13:00:55.668Z,18.44
2024-02-24T13:03:25.254Z,18.36
2024-02-24T13:05:55.025Z,18.34
2024-02-24T13:08:26.003Z,18.31
2024-02-24T13:10:56.028Z,18.20
2024-02-24T13:13:26.520Z,18.04
2024-02-24T13:15:56.940Z,17.90
2024-02-24T13:18:27.065Z,17.85
2024-02-24T13:20:57.478Z,17.69
2024-02-24T13:23:27.944Z,17.62
2024-02-24T13:25:57.831Z,17.52
2024-02-24T13:28:27.854Z,17.45
2024-02-24T13:30:57.530Z,17.33
2024-02-24T13:33:27.967Z,17.24
2024-02-24T13:35:59.629Z,17.15
2024-02-24T13:38:29.506Z,17.06
2024-02-24T13:40:58.841Z,16.97
2024-02-24T13:43:28.669Z,16.94
2024-02-24T13:46:00.260Z,16.91
2024-02-24T13:48:29.979Z,16.87
2024-02-24T13:50:59.842Z,16.85
2024-02-24T13:53:38.242Z,16.82
2024-02-24T13:56:11.501Z,16.77
2024-02-24T13:58:42.602Z,16.73
2024-02-24T14:01:14.024Z,16.69
2024-02-24T14:03:44.525Z,16.61
2024-02-24T14:06:18.268Z,16.55
2024-02-24T14:08:53.047Z,16.50
2024-02-24T14:11:22.876Z,16.55
2024-02-24T14:13:55.721Z,16.48
2024-02-24T14:16:28.383Z,16.47
2024-02-24T14:18:59.250Z,16.46
2024-02-24T14:21:31.591Z,16.46
2024-02-24T14:24:02.084Z,16.41
2024-02-24T14:26:32.732Z,16.36
2024-02-24T14:29:03.753Z,16.37
2024-02-24T14:31:34.741Z,16.29
2024-02-24T14:34:06.116Z,16.23
2024-02-24T14:36:37.609Z,16.21
2024-02-24T14:39:10.669Z,16.16
2024-02-24T14:41:40.900Z,16.15
2024-02-24T14:44:10.813Z,16.14
2024-02-24T14:47:01.436Z,16.05
2024-02-24T14:49:31.314Z,15.95
2024-02-24T14:52:04.286Z,15.86
2024-02-24T14:54:36.742Z,15.93
2024-02-24T14:59:51.156Z,15.90
2024-02-24T15:02:35.538Z,15.79
2024-02-24T15:05:17.722Z,15.84
2024-02-24T15:07:49.129Z,15.85
2024-02-24T15:10:19.054Z,15.78
2024-02-24T15:12:54.089Z,15.72
2024-02-24T15:15:24.007Z,15.75
2024-02-24T15:17:58.068Z,15.69
2024-02-24T15:20:28.879Z,15.66
2024-02-24T15:22:59.502Z,15.61
2024-02-24T15:25:33.429Z,15.55
2024-02-24T15:28:06.771Z,15.51
2024-02-24T15:30:37.193Z,15.47
2024-02-24T15:33:07.753Z,15.45
2024-02-24T15:35:38.520Z,15.44
2024-02-24T15:38:11.645Z,15.42
2024-02-24T15:40:42.531Z,15.34
2024-02-24T15:43:12.785Z,15.27
2024-02-24T15:45:42.708Z,15.26
2024-02-24T15:48:12.920Z,15.22
2024-02-24T15:50:44.637Z,15.23
2024-02-24T15:53:15.633Z,15.26
2024-02-24T15:55:48.069Z,15.17
2024-02-24T15:58:18.040Z,15.16
2024-02-24T16:00:48.893Z,15.14
2024-02-24T16:03:23.002Z,15.13
2024-02-24T16:05:54.534Z,15.13
2024-02-24T16:08:25.762Z,15.12
2024-02-24T16:10:56.153Z,15.11
2024-02-24T16:13:26.207Z,15.08
2024-02-24T16:15:57.158Z,15.04
2024-02-24T16:18:27.156Z,14.98
2024-02-24T16:20:57.396Z,14.95
2024-02-24T16:23:28.628Z,14.91
2024-02-24T16:25:59.516Z,14.86
2024-02-24T16:28:32.688Z,14.86
2024-02-24T16:31:03.046Z,14.86
2024-02-24T16:33:34.895Z,14.82
2024-02-24T16:36:05.095Z,14.79
2024-02-24T16:38:38.790Z,14.80
2024-02-24T16:41:09.946Z,14.74
2024-02-24T16:43:43.130Z,14.68
2024-02-24T16:46:13.845Z,14.62
2024-02-24T16:48:43.700Z,14.63
2024-02-24T16:51:13.688Z,14.63
2024-02-24T16:53:44.610Z,14.61
2024-02-24T16:56:14.701Z,14.57
2024-02-24T16:58:44.477Z,14.53
2024-02-24T17:01:14.230Z,14.54
2024-02-24T17:03:46.965Z,14.52
2024-02-24T17:06:17.728Z,14.53
2024-02-24T17:08:47.882Z,14.50
2024-02-24T17:11:22.457Z,14.51
2024-02-24T17:13:53.660Z,14.50
2024-02-24T17:16:23.883Z,14.49
2024-02-24T17:18:55.371Z,14.45
2024-02-24T17:21:28.668Z,14.42
2024-02-24T17:24:00.676Z,14.45
2024-02-24T17:26:31.011Z,14.41
2024-02-24T17:29:01.577Z,14.41
2024-02-24T17:31:32.313Z,14.39
2024-02-24T17:34:03.169Z,14.35
2024-02-24T17:36:40.862Z,14.32
2024-02-24T17:39:13.419Z,14.29
2024-02-24T17:41:46.498Z,14.31
2024-02-24T17:44:17.191Z,14.27
2024-02-24T17:46:47.938Z,14.25
2024-02-24T17:49:18.913Z,14.27
2024-02-24T17:51:48.743Z,14.25
2024-02-24T17:54:18.790Z,14.21
2024-02-24T17:56:48.641Z,14.22
2024-02-24T17:59:20.488Z,14.21
2024-02-24T18:01:51.731Z,14.17
2024-02-24T18:04:22.950Z,14.14
2024-02-24T18:06:54.657Z,14.13
2024-02-24T18:09:29.359Z,14.11
2024-02-24T18:12:00.186Z,14.07
2024-02-24T18:14:31.928Z,14.07
2024-02-24T18:17:02.869Z,14.11
2024-02-24T18:19:44.300Z,14.12
2024-02-24T18:22:16.101Z,14.13
2024-02-24T18:24:47.792Z,14.19
2024-02-24T18:27:20.525Z,14.10
2024-02-24T18:29:52.045Z,14.13
2024-02-24T18:32:32.566Z,14.16
2024-02-24T18:35:13.366Z,14.12
2024-02-24T18:37:48.346Z,14.04
2024-02-24T18:40:22.918Z,14.10
2024-02-24T18:42:53.923Z,14.06
2024-02-24T18:45:28.656Z,14.06
2024-02-24T18:48:04.293Z,14.04
2024-02-24T18:50:35.150Z,13.99
2024-02-24T18:53:06.898Z,13.91
2024-02-24T18:55:40.341Z,13.87
2024-02-24T18:58:12.426Z,13.81
2024-02-24T19:00:43.310Z,13.77
2024-02-24T19:03:14.614Z,13.81
2024-02-24T19:05:45.234Z,13.74
2024-02-24T19:08:15.269Z,13.65
2024-02-24T19:10:45.714Z,13.61
2024-02-24T19:13:16.010Z,13.56
2024-02-24T19:15:46.458Z,13.63
2024-02-24T19:18:17.399Z,13.61
2024-02-24T19:20:48.717Z,13.64
2024-02-24T19:23:27.089Z,13.70
2024-02-24T19:26:00.173Z,13.70
2024-02-24T19:28:30.074Z,13.70
2024-02-24T19:31:01.015Z,13.76
2024-02-24T19:33:34.271Z,13.80
2024-02-24T19:36:05.329Z,13.89
2024-02-24T19:38:35.090Z,13.91
2024-02-24T19:41:04.678Z,13.90
2024-02-24T19:43:34.351Z,13.78
2024-02-24T19:46:04.273Z,13.72
2024-02-24T19:48:34.281Z,13.66
2024-02-24T19:51:06.718Z,13.64
2024-02-24T19:53:37.085Z,13.66
2024-02-24T19:56:07.300Z,13.66
2024-02-24T19:58:42.204Z,13.66
2024-02-24T20:01:17.506Z,13.67
2024-02-24T20:03:46.918Z,13.68
2024-02-24T20:06:16.547Z,13.57
2024-02-24T20:08:45.828Z,13.50
2024-02-24T20:11:15.589Z,13.39
2024-02-24T20:13:44.924Z,13.36
2024-02-24T20:16:14.842Z,13.28
2024-02-24T20:18:45.598Z,13.31
2024-02-24T20:21:16.806Z,13.36
2024-02-24T20:23:46.351Z,13.38
2024-02-24T20:26:15.412Z,13.26
2024-02-24T20:28:45.597Z,13.13
2024-02-24T20:31:15.842Z,13.11
2024-02-24T20:33:53.574Z,13.12
2024-02-24T20:36:29.857Z,13.11
2024-02-24T20:39:00.700Z,13.19
2024-02-24T20:41:31.352Z,13.19
2024-02-24T20:44:02.340Z,13.20
2024-02-24T20:46:31.652Z,13.23
2024-02-24T20:49:00.829Z,13.26
2024-02-24T20:51:30.266Z,13.24
2024-02-24T20:53:59.475Z,13.20
2024-02-24T20:56:29.923Z,13.07
2024-02-24T20:58:59.507Z,13.00
2024-02-24T21:01:31.609Z,13.00
2024-02-24T21:04:01.261Z,12.88
2024-02-24T21:06:30.480Z,12.80
2024-02-24T21:08:59.912Z,12.73
2024-02-24T21:11:29.748Z,12.64
2024-02-24T21:14:00.003Z,12.63
2024-02-24T21:16:29.663Z,12.63
2024-02-24T21:18:59.306Z,12.61
2024-02-24T21:21:28.697Z,12.53
2024-02-24T21:23:58.543Z,12.43
2024-02-24T21:26:27.700Z,12.40
2024-02-24T21:28:57.622Z,12.34
2024-02-24T21:31:27.310Z,12.33
2024-02-24T21:33:57.249Z,12.35
2024-02-24T21:36:31.040Z,12.24
2024-02-24T21:39:02.812Z,12.22
2024-02-24T21:41:38.452Z,12.19
2024-02-24T21:44:08.453Z,12.18
2024-02-24T21:46:37.725Z,12.17
2024-02-24T21:49:08.629Z,12.16
2024-02-24T21:51:38.389Z,12.03
2024-02-24T21:54:11.672Z,12.03
2024-02-24T21:56:41.227Z,12.04
2024-02-24T21:59:10.485Z,11.95
2024-02-24T22:01:39.799Z,12.03
2024-02-24T22:04:09.544Z,12.04
2024-02-24T22:06:39.663Z,11.93
2024-02-24T22:09:10.020Z,11.92
2024-02-24T22:11:40.836Z,11.93
2024-02-24T22:14:10.638Z,11.87
2024-02-24T22:16:40.132Z,11.81
2024-02-24T22:19:10.042Z,11.76
2024-02-24T22:21:39.697Z,11.77
2024-02-24T22:24:09.035Z,11.73
2024-02-24T22:26:39.309Z,11.80
2024-02-24T22:29:09.474Z,11.83
2024-02-24T22:31:38.790Z,11.73
2024-02-24T22:34:08.670Z,11.68
2024-02-24T22:36:38.299Z,11.76
2024-02-24T22:39:08.084Z,11.65
2024-02-24T22:41:37.779Z,11.65
2024-02-24T22:44:09.646Z,11.78
2024-02-24T22:46:41.042Z,11.76
2024-02-24T22:49:11.242Z,11.71
2024-02-24T22:51:40.939Z,11.71
2024-02-24T22:54:10.585Z,11.73
2024-02-24T22:56:40.865Z,11.60
2024-02-24T22:59:12.450Z,11.60
2024-02-24T23:01:43.485Z,11.51
2024-02-24T23:04:13.140Z,11.57
2024-02-24T23:06:44.642Z,11.55
2024-02-24T23:09:14.645Z,11.58
2024-02-24T23:11:44.090Z,11.54
2024-02-24T23:14:13.821Z,11.49
2024-02-24T23:16:43.426Z,11.47
2024-02-24T23:19:13.209Z,11.41
2024-02-24T23:21:43.881Z,11.44
2024-02-24T23:24:13.695Z,11.37
2024-02-24T23:26:43.129Z,11.37
2024-02-24T23:29:13.001Z,11.32
2024-02-24T23:31:42.533Z,11.28
2024-02-24T23:34:12.167Z,11.26
2024-02-24T23:36:42.513Z,11.27
2024-02-24T23:39:12.661Z,11.22
2024-02-24T23:41:42.544Z,11.16
2024-02-24T23:44:12.104Z,11.15
2024-02-24T23:46:41.824Z,11.16
2024-02-24T23:49:11.415Z,11.14
2024-02-24T23:51:41.190Z,11.11
2024-02-24T23:54:10.763Z,11.13
2024-02-24T23:56:40.624Z,11.08
2024-02-24T23:59:10.544Z,11.02
